sensor_id;sensor_type;location;lat;lon;timestamp;P1;durP1;ratioP1;P2;durP2;ratioP2
14306;SDS011;7237;49.500;11.400;2023-02-12T00:00:03;23.07;;;16.93;;
14306;SDS011;7237;49.500;11.400;2023-02-12T00:02:31;22.00;;;16.50;;
14306;SDS011;7237;49.500;11.400;2023-02-12T00:04:58;23.80;;;16.87;;
14306;SDS011;7237;49.500;11.400;2023-02-12T00:07:25;21.60;;;16.27;;
14306;SDS011;7237;49.500;11.400;2023-02-12T00:09:55;23.83;;;16.63;;
14306;SDS011;7237;49.500;11.400;2023-02-12T00:12:23;21.43;;;16.27;;
14306;SDS011;7237;49.500;11.400;2023-02-12T00:14:50;21.27;;;16.40;;
14306;SDS011;7237;49.500;11.400;2023-02-12T00:17:17;22.53;;;16.17;;
14306;SDS011;7237;49.500;11.400;2023-02-12T00:19:45;21.07;;;16.80;;
14306;SDS011;7237;49.500;11.400;2023-02-12T00:22:13;23.20;;;17.60;;
14306;SDS011;7237;49.500;11.400;2023-02-12T00:24:40;21.53;;;16.53;;
14306;SDS011;7237;49.500;11.400;2023-02-12T00:27:07;20.60;;;15.80;;
14306;SDS011;7237;49.500;11.400;2023-02-12T00:29:35;20.13;;;15.87;;
14306;SDS011;7237;49.500;11.400;2023-02-12T00:32:02;20.30;;;15.67;;
14306;SDS011;7237;49.500;11.400;2023-02-12T00:34:29;22.80;;;17.33;;
14306;SDS011;7237;49.500;11.400;2023-02-12T00:36:57;21.33;;;16.80;;
14306;SDS011;7237;49.500;11.400;2023-02-12T00:39:24;20.20;;;15.83;;
14306;SDS011;7237;49.500;11.400;2023-02-12T00:41:51;18.50;;;14.20;;
14306;SDS011;7237;49.500;11.400;2023-02-12T00:44:18;16.47;;;13.47;;
14306;SDS011;7237;49.500;11.400;2023-02-12T00:46:46;19.73;;;15.13;;
14306;SDS011;7237;49.500;11.400;2023-02-12T00:49:13;18.67;;;14.30;;
14306;SDS011;7237;49.500;11.400;2023-02-12T00:51:43;20.50;;;15.30;;
14306;SDS011;7237;49.500;11.400;2023-02-12T00:54:10;24.97;;;16.23;;
14306;SDS011;7237;49.500;11.400;2023-02-12T00:56:37;22.20;;;15.03;;
14306;SDS011;7237;49.500;11.400;2023-02-12T00:59:04;23.40;;;17.83;;
14306;SDS011;7237;49.500;11.400;2023-02-12T01:01:31;22.37;;;17.83;;
14306;SDS011;7237;49.500;11.400;2023-02-12T01:03:59;20.70;;;16.30;;
14306;SDS011;7237;49.500;11.400;2023-02-12T01:06:26;18.53;;;14.73;;
14306;SDS011;7237;49.500;11.400;2023-02-12T01:08:53;21.83;;;16.07;;
14306;SDS011;7237;49.500;11.400;2023-02-12T01:11:20;22.30;;;16.70;;
14306;SDS011;7237;49.500;11.400;2023-02-12T01:13:47;22.37;;;17.53;;
14306;SDS011;7237;49.500;11.400;2023-02-12T01:16:15;20.47;;;16.03;;
14306;SDS011;7237;49.500;11.400;2023-02-12T01:18:43;22.13;;;17.17;;
14306;SDS011;7237;49.500;11.400;2023-02-12T01:21:12;24.53;;;17.93;;
14306;SDS011;7237;49.500;11.400;2023-02-12T01:23:39;25.83;;;17.97;;
14306;SDS011;7237;49.500;11.400;2023-02-12T01:26:06;26.03;;;19.30;;
14306;SDS011;7237;49.500;11.400;2023-02-12T01:28:36;24.57;;;18.50;;
14306;SDS011;7237;49.500;11.400;2023-02-12T01:31:06;17.97;;;15.00;;
14306;SDS011;7237;49.500;11.400;2023-02-12T01:33:33;20.43;;;15.90;;
14306;SDS011;7237;49.500;11.400;2023-02-12T01:36:00;19.80;;;15.93;;
14306;SDS011;7237;49.500;11.400;2023-02-12T01:38:29;21.30;;;15.47;;
14306;SDS011;7237;49.500;11.400;2023-02-12T01:41:00;22.10;;;16.17;;
14306;SDS011;7237;49.500;11.400;2023-02-12T01:43:28;20.57;;;15.30;;
14306;SDS011;7237;49.500;11.400;2023-02-12T01:45:55;19.53;;;15.10;;
14306;SDS011;7237;49.500;11.400;2023-02-12T01:48:22;21.37;;;15.67;;
14306;SDS011;7237;49.500;11.400;2023-02-12T01:50:51;22.20;;;16.53;;
14306;SDS011;7237;49.500;11.400;2023-02-12T01:53:19;21.90;;;16.73;;
14306;SDS011;7237;49.500;11.400;2023-02-12T01:55:49;19.00;;;15.43;;
14306;SDS011;7237;49.500;11.400;2023-02-12T01:58:18;20.53;;;16.67;;
14306;SDS011;7237;49.500;11.400;2023-02-12T02:00:46;19.43;;;15.77;;
14306;SDS011;7237;49.500;11.400;2023-02-12T02:03:13;20.93;;;16.27;;
14306;SDS011;7237;49.500;11.400;2023-02-12T02:05:42;20.23;;;16.30;;
14306;SDS011;7237;49.500;11.400;2023-02-12T02:08:09;22.60;;;17.47;;
14306;SDS011;7237;49.500;11.400;2023-02-12T02:10:36;20.73;;;16.97;;
14306;SDS011;7237;49.500;11.400;2023-02-12T02:13:05;23.67;;;16.73;;
14306;SDS011;7237;49.500;11.400;2023-02-12T02:15:50;22.37;;;17.33;;
14306;SDS011;7237;49.500;11.400;2023-02-12T02:18:21;23.13;;;17.60;;
14306;SDS011;7237;49.500;11.400;2023-02-12T02:21:01;20.70;;;17.00;;
14306;SDS011;7237;49.500;11.400;2023-02-12T02:26:32;21.97;;;16.47;;
14306;SDS011;7237;49.500;11.400;2023-02-12T02:29:10;20.47;;;15.47;;
14306;SDS011;7237;49.500;11.400;2023-02-12T02:31:45;19.80;;;15.67;;
14306;SDS011;7237;49.500;11.400;2023-02-12T02:34:16;23.20;;;16.10;;
14306;SDS011;7237;49.500;11.400;2023-02-12T02:36:45;20.10;;;16.33;;
14306;SDS011;7237;49.500;11.400;2023-02-12T02:39:14;20.53;;;16.20;;
14306;SDS011;7237;49.500;11.400;2023-02-12T02:41:43;23.07;;;17.43;;
14306;SDS011;7237;49.500;11.400;2023-02-12T02:44:12;22.43;;;17.17;;
14306;SDS011;7237;49.500;11.400;2023-02-12T02:46:41;22.93;;;17.33;;
14306;SDS011;7237;49.500;11.400;2023-02-12T02:49:12;22.77;;;17.43;;
14306;SDS011;7237;49.500;11.400;2023-02-12T02:51:43;24.53;;;17.63;;
14306;SDS011;7237;49.500;11.400;2023-02-12T02:54:11;24.90;;;18.40;;
14306;SDS011;7237;49.500;11.400;2023-02-12T02:56:43;23.80;;;17.70;;
14306;SDS011;7237;49.500;11.400;2023-02-12T02:59:12;28.40;;;19.83;;
14306;SDS011;7237;49.500;11.400;2023-02-12T03:01:41;30.47;;;20.87;;
14306;SDS011;7237;49.500;11.400;2023-02-12T03:04:11;30.23;;;21.23;;
14306;SDS011;7237;49.500;11.400;2023-02-12T03:06:42;25.37;;;19.93;;
14306;SDS011;7237;49.500;11.400;2023-02-12T03:09:12;21.57;;;17.27;;
14306;SDS011;7237;49.500;11.400;2023-02-12T03:11:41;22.30;;;18.60;;
14306;SDS011;7237;49.500;11.400;2023-02-12T03:14:10;23.37;;;17.27;;
14306;SDS011;7237;49.500;11.400;2023-02-12T03:16:40;24.27;;;17.67;;
14306;SDS011;7237;49.500;11.400;2023-02-12T03:19:11;20.97;;;16.77;;
14306;SDS011;7237;49.500;11.400;2023-02-12T03:21:42;23.97;;;17.37;;
14306;SDS011;7237;49.500;11.400;2023-02-12T03:24:12;24.30;;;18.27;;
14306;SDS011;7237;49.500;11.400;2023-02-12T03:26:42;23.77;;;17.10;;
14306;SDS011;7237;49.500;11.400;2023-02-12T03:29:10;19.67;;;16.30;;
14306;SDS011;7237;49.500;11.400;2023-02-12T03:31:40;21.30;;;16.97;;
14306;SDS011;7237;49.500;11.400;2023-02-12T03:34:13;21.27;;;16.97;;
14306;SDS011;7237;49.500;11.400;2023-02-12T03:36:44;21.13;;;16.53;;
14306;SDS011;7237;49.500;11.400;2023-02-12T03:39:15;22.97;;;16.40;;
14306;SDS011;7237;49.500;11.400;2023-02-12T03:41:46;22.13;;;16.37;;
14306;SDS011;7237;49.500;11.400;2023-02-12T03:44:17;23.23;;;17.97;;
14306;SDS011;7237;49.500;11.400;2023-02-12T03:46:50;24.07;;;18.13;;
14306;SDS011;7237;49.500;11.400;2023-02-12T03:49:20;23.67;;;16.93;;
14306;SDS011;7237;49.500;11.400;2023-02-12T03:51:48;24.80;;;17.37;;
14306;SDS011;7237;49.500;11.400;2023-02-12T03:54:16;21.60;;;17.17;;
14306;SDS011;7237;49.500;11.400;2023-02-12T03:56:45;20.07;;;15.83;;
14306;SDS011;7237;49.500;11.400;2023-02-12T03:59:16;23.70;;;16.30;;
14306;SDS011;7237;49.500;11.400;2023-02-12T04:01:43;22.30;;;17.03;;
14306;SDS011;7237;49.500;11.400;2023-02-12T04:04:10;22.67;;;16.17;;
14306;SDS011;7237;49.500;11.400;2023-02-12T04:06:37;21.10;;;15.67;;
14306;SDS011;7237;49.500;11.400;2023-02-12T04:09:07;21.73;;;17.07;;
14306;SDS011;7237;49.500;11.400;2023-02-12T04:11:36;20.20;;;16.30;;
14306;SDS011;7237;49.500;11.400;2023-02-12T04:14:12;20.97;;;15.83;;
14306;SDS011;7237;49.500;11.400;2023-02-12T04:16:40;21.33;;;16.87;;
14306;SDS011;7237;49.500;11.400;2023-02-12T04:19:10;20.57;;;16.07;;
14306;SDS011;7237;49.500;11.400;2023-02-12T04:21:43;19.50;;;15.67;;
14306;SDS011;7237;49.500;11.400;2023-02-12T04:24:17;21.83;;;16.77;;
14306;SDS011;7237;49.500;11.400;2023-02-12T04:26:46;25.83;;;18.97;;
14306;SDS011;7237;49.500;11.400;2023-02-12T04:29:16;25.50;;;18.93;;
14306;SDS011;7237;49.500;11.400;2023-02-12T04:31:45;27.83;;;19.90;;
14306;SDS011;7237;49.500;11.400;2023-02-12T04:34:14;26.33;;;19.20;;
14306;SDS011;7237;49.500;11.400;2023-02-12T04:36:44;25.70;;;20.00;;
14306;SDS011;7237;49.500;11.400;2023-02-12T04:39:14;25.03;;;19.67;;
14306;SDS011;7237;49.500;11.400;2023-02-12T04:41:43;25.87;;;19.93;;
14306;SDS011;7237;49.500;11.400;2023-02-12T04:44:15;29.93;;;20.30;;
14306;SDS011;7237;49.500;11.400;2023-02-12T04:46:42;25.90;;;20.27;;
14306;SDS011;7237;49.500;11.400;2023-02-12T04:49:10;28.00;;;19.47;;
14306;SDS011;7237;49.500;11.400;2023-02-12T04:51:40;24.77;;;18.60;;
14306;SDS011;7237;49.500;11.400;2023-02-12T04:54:07;26.40;;;19.63;;
14306;SDS011;7237;49.500;11.400;2023-02-12T04:56:34;24.47;;;17.90;;
14306;SDS011;7237;49.500;11.400;2023-02-12T04:59:02;24.80;;;18.60;;
14306;SDS011;7237;49.500;11.400;2023-02-12T05:01:30;22.37;;;17.47;;
14306;SDS011;7237;49.500;11.400;2023-02-12T05:03:57;23.87;;;17.23;;
14306;SDS011;7237;49.500;11.400;2023-02-12T05:06:24;22.50;;;17.50;;
14306;SDS011;7237;49.500;11.400;2023-02-12T05:08:51;22.47;;;17.20;;
14306;SDS011;7237;49.500;11.400;2023-02-12T05:11:18;26.27;;;18.17;;
14306;SDS011;7237;49.500;11.400;2023-02-12T05:13:47;20.33;;;14.73;;
14306;SDS011;7237;49.500;11.400;2023-02-12T05:16:15;21.57;;;16.23;;
14306;SDS011;7237;49.500;11.400;2023-02-12T05:18:43;22.40;;;15.90;;
14306;SDS011;7237;49.500;11.400;2023-02-12T05:21:10;20.23;;;15.60;;
14306;SDS011;7237;49.500;11.400;2023-02-12T05:23:38;20.17;;;16.27;;
14306;SDS011;7237;49.500;11.400;2023-02-12T05:26:06;20.53;;;15.70;;
14306;SDS011;7237;49.500;11.400;2023-02-12T05:28:33;24.07;;;16.80;;
14306;SDS011;7237;49.500;11.400;2023-02-12T05:31:00;22.83;;;17.23;;
14306;SDS011;7237;49.500;11.400;2023-02-12T05:33:29;20.17;;;16.53;;
14306;SDS011;7237;49.500;11.400;2023-02-12T05:36:01;25.13;;;17.43;;
14306;SDS011;7237;49.500;11.400;2023-02-12T05:38:28;24.00;;;17.27;;
14306;SDS011;7237;49.500;11.400;2023-02-12T05:40:59;24.70;;;18.33;;
14306;SDS011;7237;49.500;11.400;2023-02-12T05:43:26;27.30;;;19.27;;
14306;SDS011;7237;49.500;11.400;2023-02-12T05:45:53;25.43;;;18.07;;
14306;SDS011;7237;49.500;11.400;2023-02-12T05:48:20;20.93;;;17.10;;
14306;SDS011;7237;49.500;11.400;2023-02-12T05:50:49;22.20;;;16.97;;
14306;SDS011;7237;49.500;11.400;2023-02-12T05:53:16;21.63;;;17.17;;
14306;SDS011;7237;49.500;11.400;2023-02-12T05:55:43;20.57;;;16.47;;
14306;SDS011;7237;49.500;11.400;2023-02-12T05:58:10;24.97;;;17.20;;
14306;SDS011;7237;49.500;11.400;2023-02-12T06:00:37;23.00;;;17.37;;
14306;SDS011;7237;49.500;11.400;2023-02-12T06:03:04;23.87;;;16.80;;
14306;SDS011;7237;49.500;11.400;2023-02-12T06:05:31;21.53;;;17.37;;
14306;SDS011;7237;49.500;11.400;2023-02-12T06:07:59;19.27;;;16.13;;
14306;SDS011;7237;49.500;11.400;2023-02-12T06:10:26;21.03;;;16.17;;
14306;SDS011;7237;49.500;11.400;2023-02-12T06:12:53;21.47;;;16.30;;
14306;SDS011;7237;49.500;11.400;2023-02-12T06:15:20;20.10;;;15.07;;
14306;SDS011;7237;49.500;11.400;2023-02-12T06:17:47;25.77;;;17.37;;
14306;SDS011;7237;49.500;11.400;2023-02-12T06:20:15;21.33;;;16.50;;
14306;SDS011;7237;49.500;11.400;2023-02-12T06:22:42;23.27;;;17.70;;
14306;SDS011;7237;49.500;11.400;2023-02-12T06:25:10;21.70;;;16.33;;
14306;SDS011;7237;49.500;11.400;2023-02-12T06:27:37;20.33;;;15.83;;
14306;SDS011;7237;49.500;11.400;2023-02-12T06:30:05;21.07;;;17.07;;
14306;SDS011;7237;49.500;11.400;2023-02-12T06:32:32;21.90;;;16.37;;
14306;SDS011;7237;49.500;11.400;2023-02-12T06:34:59;22.73;;;17.73;;
14306;SDS011;7237;49.500;11.400;2023-02-12T06:37:26;22.90;;;17.63;;
14306;SDS011;7237;49.500;11.400;2023-02-12T06:39:53;24.27;;;18.80;;
14306;SDS011;7237;49.500;11.400;2023-02-12T06:42:21;21.53;;;18.30;;
14306;SDS011;7237;49.500;11.400;2023-02-12T06:44:48;24.53;;;17.73;;
14306;SDS011;7237;49.500;11.400;2023-02-12T06:47:15;23.70;;;17.90;;
14306;SDS011;7237;49.500;11.400;2023-02-12T06:49:42;22.07;;;17.70;;
14306;SDS011;7237;49.500;11.400;2023-02-12T06:52:09;23.53;;;18.00;;
14306;SDS011;7237;49.500;11.400;2023-02-12T06:54:38;24.87;;;18.23;;
14306;SDS011;7237;49.500;11.400;2023-02-12T06:57:05;24.53;;;17.73;;
14306;SDS011;7237;49.500;11.400;2023-02-12T06:59:33;23.73;;;18.37;;
14306;SDS011;7237;49.500;11.400;2023-02-12T07:02:00;24.37;;;17.67;;
14306;SDS011;7237;49.500;11.400;2023-02-12T07:04:27;26.97;;;18.87;;
14306;SDS011;7237;49.500;11.400;2023-02-12T07:06:54;25.10;;;18.47;;
14306;SDS011;7237;49.500;11.400;2023-02-12T07:09:21;24.47;;;19.20;;
14306;SDS011;7237;49.500;11.400;2023-02-12T07:11:48;24.37;;;17.90;;
14306;SDS011;7237;49.500;11.400;2023-02-12T07:14:16;21.60;;;16.73;;
14306;SDS011;7237;49.500;11.400;2023-02-12T07:16:44;23.07;;;17.50;;
14306;SDS011;7237;49.500;11.400;2023-02-12T07:19:12;22.47;;;16.93;;
14306;SDS011;7237;49.500;11.400;2023-02-12T07:21:40;22.60;;;17.00;;
14306;SDS011;7237;49.500;11.400;2023-02-12T07:24:08;24.70;;;16.77;;
14306;SDS011;7237;49.500;11.400;2023-02-12T07:26:36;23.40;;;17.27;;
14306;SDS011;7237;49.500;11.400;2023-02-12T07:29:03;23.90;;;19.17;;
14306;SDS011;7237;49.500;11.400;2023-02-12T07:31:31;23.87;;;17.40;;
14306;SDS011;7237;49.500;11.400;2023-02-12T07:33:59;24.83;;;18.00;;
14306;SDS011;7237;49.500;11.400;2023-02-12T07:36:27;25.93;;;18.17;;
14306;SDS011;7237;49.500;11.400;2023-02-12T07:38:54;25.03;;;18.10;;
14306;SDS011;7237;49.500;11.400;2023-02-12T07:41:23;22.87;;;17.00;;
14306;SDS011;7237;49.500;11.400;2023-02-12T07:43:52;22.27;;;17.87;;
14306;SDS011;7237;49.500;11.400;2023-02-12T07:46:20;25.83;;;18.97;;
14306;SDS011;7237;49.500;11.400;2023-02-12T07:48:50;27.13;;;19.60;;
14306;SDS011;7237;49.500;11.400;2023-02-12T07:51:19;26.93;;;21.03;;
14306;SDS011;7237;49.500;11.400;2023-02-12T07:53:46;24.23;;;18.83;;
14306;SDS011;7237;49.500;11.400;2023-02-12T07:56:13;24.83;;;19.57;;
14306;SDS011;7237;49.500;11.400;2023-02-12T07:58:41;23.37;;;17.40;;
14306;SDS011;7237;49.500;11.400;2023-02-12T08:01:10;28.23;;;18.93;;
14306;SDS011;7237;49.500;11.400;2023-02-12T08:03:37;24.53;;;17.90;;
14306;SDS011;7237;49.500;11.400;2023-02-12T08:06:05;27.07;;;18.33;;
14306;SDS011;7237;49.500;11.400;2023-02-12T08:08:34;31.63;;;22.00;;
14306;SDS011;7237;49.500;11.400;2023-02-12T08:11:02;29.87;;;21.07;;
14306;SDS011;7237;49.500;11.400;2023-02-12T08:13:30;30.40;;;20.93;;
14306;SDS011;7237;49.500;11.400;2023-02-12T08:16:00;29.77;;;20.17;;
14306;SDS011;7237;49.500;11.400;2023-02-12T08:18:27;28.57;;;21.03;;
14306;SDS011;7237;49.500;11.400;2023-02-12T08:20:59;27.07;;;20.10;;
14306;SDS011;7237;49.500;11.400;2023-02-12T08:23:26;25.37;;;19.13;;
14306;SDS011;7237;49.500;11.400;2023-02-12T08:25:55;24.93;;;19.80;;
14306;SDS011;7237;49.500;11.400;2023-02-12T08:28:29;26.77;;;19.47;;
14306;SDS011;7237;49.500;11.400;2023-02-12T08:30:58;34.13;;;25.33;;
14306;SDS011;7237;49.500;11.400;2023-02-12T08:33:25;30.20;;;21.87;;
14306;SDS011;7237;49.500;11.400;2023-02-12T08:35:59;27.93;;;20.93;;
14306;SDS011;7237;49.500;11.400;2023-02-12T08:38:26;27.90;;;19.73;;
14306;SDS011;7237;49.500;11.400;2023-02-12T08:40:54;26.37;;;19.87;;
14306;SDS011;7237;49.500;11.400;2023-02-12T08:43:21;29.37;;;22.20;;
14306;SDS011;7237;49.500;11.400;2023-02-12T08:45:48;30.43;;;21.70;;
14306;SDS011;7237;49.500;11.400;2023-02-12T08:48:15;34.17;;;24.03;;
14306;SDS011;7237;49.500;11.400;2023-02-12T08:50:44;31.63;;;21.77;;
14306;SDS011;7237;49.500;11.400;2023-02-12T08:53:11;29.47;;;20.83;;
14306;SDS011;7237;49.500;11.400;2023-02-12T08:55:38;29.27;;;21.07;;
14306;SDS011;7237;49.500;11.400;2023-02-12T08:58:07;31.30;;;21.93;;
14306;SDS011;7237;49.500;11.400;2023-02-12T09:00:34;30.47;;;21.27;;
14306;SDS011;7237;49.500;11.400;2023-02-12T09:03:01;32.13;;;22.23;;
14306;SDS011;7237;49.500;11.400;2023-02-12T09:05:28;34.43;;;23.43;;
14306;SDS011;7237;49.500;11.400;2023-02-12T09:07:55;32.23;;;23.43;;
14306;SDS011;7237;49.500;11.400;2023-02-12T09:10:22;34.80;;;24.00;;
14306;SDS011;7237;49.500;11.400;2023-02-12T09:12:49;30.83;;;22.30;;
14306;SDS011;7237;49.500;11.400;2023-02-12T09:15:17;30.70;;;22.83;;
14306;SDS011;7237;49.500;11.400;2023-02-12T09:17:44;33.17;;;22.37;;
14306;SDS011;7237;49.500;11.400;2023-02-12T09:20:11;30.83;;;22.37;;
14306;SDS011;7237;49.500;11.400;2023-02-12T09:22:38;32.07;;;21.83;;
14306;SDS011;7237;49.500;11.400;2023-02-12T09:25:05;29.70;;;21.63;;
14306;SDS011;7237;49.500;11.400;2023-02-12T09:27:32;33.43;;;22.20;;
14306;SDS011;7237;49.500;11.400;2023-02-12T09:30:00;29.13;;;21.33;;
14306;SDS011;7237;49.500;11.400;2023-02-12T09:32:28;32.87;;;21.50;;
14306;SDS011;7237;49.500;11.400;2023-02-12T09:34:55;35.03;;;23.67;;
14306;SDS011;7237;49.500;11.400;2023-02-12T09:37:22;41.13;;;25.83;;
14306;SDS011;7237;49.500;11.400;2023-02-12T09:39:49;32.40;;;21.43;;
14306;SDS011;7237;49.500;11.400;2023-02-12T09:42:19;29.53;;;19.83;;
14306;SDS011;7237;49.500;11.400;2023-02-12T09:44:49;32.20;;;22.57;;
14306;SDS011;7237;49.500;11.400;2023-02-12T09:47:20;32.33;;;21.07;;
14306;SDS011;7237;49.500;11.400;2023-02-12T09:49:55;31.10;;;22.43;;
14306;SDS011;7237;49.500;11.400;2023-02-12T09:52:26;29.83;;;20.03;;
14306;SDS011;7237;49.500;11.400;2023-02-12T09:54:53;16.37;;;12.43;;
14306;SDS011;7237;49.500;11.400;2023-02-12T09:57:22;25.13;;;17.70;;
14306;SDS011;7237;49.500;11.400;2023-02-12T09:59:55;21.13;;;15.80;;
14306;SDS011;7237;49.500;11.400;2023-02-12T10:02:22;25.60;;;18.53;;
14306;SDS011;7237;49.500;11.400;2023-02-12T10:04:50;26.57;;;19.10;;
14306;SDS011;7237;49.500;11.400;2023-02-12T10:07:22;18.77;;;13.57;;
14306;SDS011;7237;49.500;11.400;2023-02-12T10:09:57;25.13;;;17.70;;
14306;SDS011;7237;49.500;11.400;2023-02-12T10:12:28;20.73;;;15.97;;
14306;SDS011;7237;49.500;11.400;2023-02-12T10:15:12;22.10;;;16.90;;
14306;SDS011;7237;49.500;11.400;2023-02-12T10:17:41;24.50;;;17.43;;
14306;SDS011;7237;49.500;11.400;2023-02-12T10:25:53;23.00;;;16.03;;
14306;SDS011;7237;49.500;11.400;2023-02-12T10:28:23;22.43;;;16.53;;
14306;SDS011;7237;49.500;11.400;2023-02-12T10:30:52;24.80;;;17.30;;
14306;SDS011;7237;49.500;11.400;2023-02-12T10:33:23;25.60;;;16.67;;
14306;SDS011;7237;49.500;11.400;2023-02-12T10:35:52;22.93;;;15.90;;
14306;SDS011;7237;49.500;11.400;2023-02-12T10:38:21;25.80;;;17.07;;
14306;SDS011;7237;49.500;11.400;2023-02-12T10:40:50;25.30;;;16.40;;
14306;SDS011;7237;49.500;11.400;2023-02-12T10:43:23;21.57;;;16.03;;
14306;SDS011;7237;49.500;11.400;2023-02-12T10:45:50;24.50;;;16.70;;
14306;SDS011;7237;49.500;11.400;2023-02-12T10:48:17;24.57;;;17.03;;
14306;SDS011;7237;49.500;11.400;2023-02-12T10:50:50;24.93;;;15.23;;
14306;SDS011;7237;49.500;11.400;2023-02-12T10:53:19;23.23;;;16.13;;
14306;SDS011;7237;49.500;11.400;2023-02-12T10:55:47;23.47;;;17.00;;
14306;SDS011;7237;49.500;11.400;2023-02-12T10:58:16;24.47;;;16.27;;
14306;SDS011;7237;49.500;11.400;2023-02-12T11:00:46;25.10;;;16.30;;
14306;SDS011;7237;49.500;11.400;2023-02-12T11:03:18;28.63;;;18.50;;
14306;SDS011;7237;49.500;11.400;2023-02-12T11:05:46;25.63;;;17.13;;
14306;SDS011;7237;49.500;11.400;2023-02-12T11:11:03;26.07;;;17.20;;
14306;SDS011;7237;49.500;11.400;2023-02-12T11:13:32;22.87;;;15.97;;
14306;SDS011;7237;49.500;11.400;2023-02-12T11:16:00;30.38;;;22.33;;
14306;SDS011;7237;49.500;11.400;2023-02-12T11:18:28;28.38;;;21.55;;
14306;SDS011;7237;49.500;11.400;2023-02-12T11:20:57;27.37;;;19.23;;
14306;SDS011;7237;49.500;11.400;2023-02-12T11:23:26;27.83;;;20.03;;
14306;SDS011;7237;49.500;11.400;2023-02-12T11:25:55;28.60;;;20.27;;
14306;SDS011;7237;49.500;11.400;2023-02-12T11:28:22;28.27;;;19.63;;
14306;SDS011;7237;49.500;11.400;2023-02-12T11:30:51;25.23;;;17.57;;
14306;SDS011;7237;49.500;11.400;2023-02-12T11:33:30;24.85;;;18.08;;
14306;SDS011;7237;49.500;11.400;2023-02-12T11:35:59;24.33;;;16.33;;
14306;SDS011;7237;49.500;11.400;2023-02-12T11:38:29;22.40;;;16.10;;
14306;SDS011;7237;49.500;11.400;2023-02-12T11:41:01;23.47;;;17.63;;
14306;SDS011;7237;49.500;11.400;2023-02-12T11:43:29;21.93;;;16.07;;
14306;SDS011;7237;49.500;11.400;2023-02-12T11:45:57;27.80;;;18.03;;
14306;SDS011;7237;49.500;11.400;2023-02-12T11:48:26;27.07;;;17.40;;
14306;SDS011;7237;49.500;11.400;2023-02-12T11:50:57;24.13;;;17.07;;
14306;SDS011;7237;49.500;11.400;2023-02-12T11:53:24;23.17;;;17.40;;
14306;SDS011;7237;49.500;11.400;2023-02-12T11:55:54;23.87;;;16.20;;
14306;SDS011;7237;49.500;11.400;2023-02-12T11:58:23;24.00;;;16.23;;
14306;SDS011;7237;49.500;11.400;2023-02-12T12:00:52;27.08;;;18.98;;
14306;SDS011;7237;49.500;11.400;2023-02-12T12:03:21;29.47;;;17.93;;
14306;SDS011;7237;49.500;11.400;2023-02-12T12:05:51;25.87;;;18.50;;
14306;SDS011;7237;49.500;11.400;2023-02-12T12:08:22;28.90;;;18.20;;
14306;SDS011;7237;49.500;11.400;2023-02-12T12:10:57;28.50;;;18.47;;
14306;SDS011;7237;49.500;11.400;2023-02-12T12:13:26;30.07;;;19.43;;
14306;SDS011;7237;49.500;11.400;2023-02-12T12:15:58;30.30;;;19.03;;
14306;SDS011;7237;49.500;11.400;2023-02-12T12:18:44;31.17;;;19.40;;
14306;SDS011;7237;49.500;11.400;2023-02-12T12:21:33;29.57;;;18.73;;
14306;SDS011;7237;49.500;11.400;2023-02-12T12:24:05;27.60;;;17.23;;
14306;SDS011;7237;49.500;11.400;2023-02-12T12:26:34;28.47;;;17.93;;
14306;SDS011;7237;49.500;11.400;2023-02-12T12:29:03;29.10;;;17.90;;
14306;SDS011;7237;49.500;11.400;2023-02-12T12:31:32;27.77;;;18.23;;
14306;SDS011;7237;49.500;11.400;2023-02-12T12:34:02;30.83;;;19.83;;
14306;SDS011;7237;49.500;11.400;2023-02-12T12:36:38;29.97;;;19.20;;
14306;SDS011;7237;49.500;11.400;2023-02-12T12:39:13;25.37;;;17.07;;
14306;SDS011;7237;49.500;11.400;2023-02-12T12:41:45;26.57;;;17.17;;
14306;SDS011;7237;49.500;11.400;2023-02-12T12:44:18;25.13;;;17.00;;
14306;SDS011;7237;49.500;11.400;2023-02-12T12:46:52;23.30;;;15.70;;
14306;SDS011;7237;49.500;11.400;2023-02-12T12:49:26;24.27;;;17.00;;
14306;SDS011;7237;49.500;11.400;2023-02-12T12:52:05;24.23;;;16.10;;
14306;SDS011;7237;49.500;11.400;2023-02-12T12:54:43;22.40;;;15.13;;
14306;SDS011;7237;49.500;11.400;2023-02-12T12:57:14;26.03;;;17.43;;
14306;SDS011;7237;49.500;11.400;2023-02-12T12:59:52;22.97;;;15.03;;
14306;SDS011;7237;49.500;11.400;2023-02-12T13:05:17;23.50;;;16.57;;
14306;SDS011;7237;49.500;11.400;2023-02-12T13:07:47;23.70;;;15.70;;
14306;SDS011;7237;49.500;11.400;2023-02-12T13:10:25;24.07;;;16.50;;
14306;SDS011;7237;49.500;11.400;2023-02-12T13:15:42;23.80;;;16.40;;
14306;SDS011;7237;49.500;11.400;2023-02-12T13:18:13;22.83;;;15.73;;
14306;SDS011;7237;49.500;11.400;2023-02-12T13:20:45;24.10;;;15.97;;
14306;SDS011;7237;49.500;11.400;2023-02-12T13:23:14;21.60;;;15.17;;
14306;SDS011;7237;49.500;11.400;2023-02-12T13:25:46;23.77;;;15.17;;
14306;SDS011;7237;49.500;11.400;2023-02-12T13:28:14;23.10;;;15.70;;
14306;SDS011;7237;49.500;11.400;2023-02-12T13:30:44;22.83;;;16.20;;
14306;SDS011;7237;49.500;11.400;2023-02-12T13:33:14;25.17;;;16.40;;
14306;SDS011;7237;49.500;11.400;2023-02-12T13:35:44;26.97;;;17.13;;
14306;SDS011;7237;49.500;11.400;2023-02-12T13:38:14;22.53;;;15.73;;
14306;SDS011;7237;49.500;11.400;2023-02-12T13:40:43;23.37;;;16.23;;
14306;SDS011;7237;49.500;11.400;2023-02-12T13:46:01;24.07;;;16.30;;
14306;SDS011;7237;49.500;11.400;2023-02-12T13:48:34;23.20;;;16.20;;
14306;SDS011;7237;49.500;11.400;2023-02-12T13:51:07;21.57;;;15.07;;
14306;SDS011;7237;49.500;11.400;2023-02-12T13:53:41;23.27;;;15.83;;
14306;SDS011;7237;49.500;11.400;2023-02-12T13:56:14;21.93;;;15.67;;
14306;SDS011;7237;49.500;11.400;2023-02-12T13:58:46;23.23;;;15.73;;
14306;SDS011;7237;49.500;11.400;2023-02-12T14:03:57;23.67;;;15.90;;
14306;SDS011;7237;49.500;11.400;2023-02-12T14:06:44;24.13;;;16.57;;
14306;SDS011;7237;49.500;11.400;2023-02-12T14:09:17;24.47;;;15.80;;
14306;SDS011;7237;49.500;11.400;2023-02-12T14:11:46;24.47;;;15.50;;
14306;SDS011;7237;49.500;11.400;2023-02-12T14:14:18;22.40;;;15.70;;
14306;SDS011;7237;49.500;11.400;2023-02-12T14:16:49;19.83;;;14.63;;
14306;SDS011;7237;49.500;11.400;2023-02-12T14:22:08;22.77;;;14.63;;
14306;SDS011;7237;49.500;11.400;2023-02-12T14:27:28;22.07;;;14.80;;
14306;SDS011;7237;49.500;11.400;2023-02-12T14:29:59;23.57;;;15.93;;
14306;SDS011;7237;49.500;11.400;2023-02-12T14:35:29;22.10;;;14.83;;
14306;SDS011;7237;49.500;11.400;2023-02-12T14:37:58;21.30;;;14.40;;
14306;SDS011;7237;49.500;11.400;2023-02-12T14:43:25;20.30;;;15.53;;
14306;SDS011;7237;49.500;11.400;2023-02-12T14:45:53;23.33;;;15.20;;
14306;SDS011;7237;49.500;11.400;2023-02-12T14:48:39;22.60;;;15.43;;
14306;SDS011;7237;49.500;11.400;2023-02-12T14:51:07;20.30;;;13.53;;
14306;SDS011;7237;49.500;11.400;2023-02-12T14:53:39;20.33;;;14.63;;
14306;SDS011;7237;49.500;11.400;2023-02-12T14:56:06;20.40;;;14.67;;
14306;SDS011;7237;49.500;11.400;2023-02-12T14:58:35;20.83;;;14.97;;
14306;SDS011;7237;49.500;11.400;2023-02-12T15:01:03;21.13;;;15.17;;
14306;SDS011;7237;49.500;11.400;2023-02-12T15:03:31;20.60;;;13.83;;
14306;SDS011;7237;49.500;11.400;2023-02-12T15:06:02;20.57;;;14.07;;